sensor_id;sensor_type;location;lat;lon;timestamp;pressure;altitude;pressure_sealevel;temperature;humidity
76114;BME280;64845;53.086;5.834;2022-11-11T00:00:17;102578.50;;;10.57;81.05
76114;BME280;64845;53.086;5.834;2022-11-11T00:02:43;102593.66;;;10.57;81.35
76114;BME280;64845;53.086;5.834;2022-11-11T00:05:08;102584.72;;;10.56;81.19
76114;BME280;64845;53.086;5.834;2022-11-11T00:07:34;102575.84;;;10.56;81.19
76114;BME280;64845;53.086;5.834;2022-11-11T00:09:59;102582.97;;;10.55;81.33
76114;BME280;64845;53.086;5.834;2022-11-11T00:12:24;102588.34;;;10.54;81.49
76114;BME280;64845;53.086;5.834;2022-11-11T00:14:50;102597.22;;;10.54;81.05
76114;BME280;64845;53.086;5.834;2022-11-11T00:17:15;102589.22;;;10.53;81.26
76114;BME280;64845;53.086;5.834;2022-11-11T00:19:59;102582.13;;;10.50;81.48
76114;BME280;64845;53.086;5.834;2022-11-11T00:22:43;102588.38;;;10.49;81.23
76114;BME280;64845;53.086;5.834;2022-11-11T00:25:27;102580.38;;;10.49;81.57
76114;BME280;64845;53.086;5.834;2022-11-11T00:27:52;102578.59;;;10.48;81.44
76114;BME280;64845;53.086;5.834;2022-11-11T00:30:18;102589.28;;;10.48;81.72
76114;BME280;64845;53.086;5.834;2022-11-11T00:32:44;102585.72;;;10.49;81.48
76114;BME280;64845;53.086;5.834;2022-11-11T00:35:09;102585.72;;;10.48;81.45
76114;BME280;64845;53.086;5.834;2022-11-11T00:37:53;102590.19;;;10.47;81.73
76114;BME280;64845;53.086;5.834;2022-11-11T00:40:19;102584.84;;;10.47;81.79
76114;BME280;64845;53.086;5.834;2022-11-11T00:42:44;102583.06;;;10.46;81.75
76114;BME280;64845;53.086;5.834;2022-11-11T00:45:10;102570.63;;;10.45;81.73
76114;BME280;64845;53.086;5.834;2022-11-11T00:47:36;102577.72;;;10.45;81.91
76114;BME280;64845;53.086;5.834;2022-11-11T00:50:23;102577.75;;;10.43;81.96
76114;BME280;64845;53.086;5.834;2022-11-11T00:53:10;102574.22;;;10.41;81.73
76114;BME280;64845;53.086;5.834;2022-11-11T00:55:36;102587.56;;;10.41;81.81
76114;BME280;64845;53.086;5.834;2022-11-11T00:58:01;102573.31;;;10.40;81.87
76114;BME280;64845;53.086;5.834;2022-11-11T01:00:27;102576.88;;;10.41;81.82
76114;BME280;64845;53.086;5.834;2022-11-11T01:02:52;102576.00;;;10.42;82.18
76114;BME280;64845;53.086;5.834;2022-11-11T01:05:17;102575.09;;;10.43;81.90
76114;BME280;64845;53.086;5.834;2022-11-11T01:07:43;102581.31;;;10.45;81.97
76114;BME280;64845;53.086;5.834;2022-11-11T01:10:09;102565.28;;;10.43;82.10
76114;BME280;64845;53.086;5.834;2022-11-11T01:12:34;102571.50;;;10.47;82.15
76114;BME280;64845;53.086;5.834;2022-11-11T01:14:59;102571.50;;;10.47;82.23
76114;BME280;64845;53.086;5.834;2022-11-11T01:17:25;102567.03;;;10.48;82.23
76114;BME280;64845;53.086;5.834;2022-11-11T01:19:50;102553.69;;;10.46;81.97
76114;BME280;64845;53.086;5.834;2022-11-11T01:22:15;102551.00;;;10.48;82.19
76114;BME280;64845;53.086;5.834;2022-11-11T01:24:41;102555.47;;;10.47;81.77
76114;BME280;64845;53.086;5.834;2022-11-11T01:27:06;102556.34;;;10.48;82.29
76114;BME280;64845;53.086;5.834;2022-11-11T01:29:32;102547.47;;;10.47;82.15
76114;BME280;64845;53.086;5.834;2022-11-11T01:31:57;102536.78;;;10.47;82.05
76114;BME280;64845;53.086;5.834;2022-11-11T01:34:22;102553.69;;;10.46;82.17
76114;BME280;64845;53.086;5.834;2022-11-11T01:36:48;102557.22;;;10.47;82.14
76114;BME280;64845;53.086;5.834;2022-11-11T01:39:13;102566.16;;;10.46;82.32
76114;BME280;64845;53.086;5.834;2022-11-11T01:41:38;102568.84;;;10.44;82.08
76114;BME280;64845;53.086;5.834;2022-11-11T01:54:26;102589.38;;;10.39;82.19
76114;BME280;64845;53.086;5.834;2022-11-11T01:57:02;102603.59;;;10.38;82.23
76114;BME280;64845;53.086;5.834;2022-11-11T01:59:29;102599.16;;;10.37;82.21
76114;BME280;64845;53.086;5.834;2022-11-11T02:01:56;102608.09;;;10.34;82.25
76114;BME280;64845;53.086;5.834;2022-11-11T02:04:21;102615.19;;;10.34;82.07
76114;BME280;64845;53.086;5.834;2022-11-11T02:07:07;102614.31;;;10.32;82.28
76114;BME280;64845;53.086;5.834;2022-11-11T02:09:35;102624.13;;;10.31;82.31
76114;BME280;64845;53.086;5.834;2022-11-11T02:12:05;102617.94;;;10.27;82.79
76114;BME280;64845;53.086;5.834;2022-11-11T02:14:53;102616.19;;;10.23;82.47
76114;BME280;64845;53.086;5.834;2022-11-11T02:17:19;102597.50;;;10.23;82.35
76114;BME280;64845;53.086;5.834;2022-11-11T02:19:53;102606.41;;;10.21;82.48
76114;BME280;64845;53.086;5.834;2022-11-11T02:24:53;102603.75;;;10.19;82.46
76114;BME280;64845;53.086;5.834;2022-11-11T02:27:20;102599.34;;;10.15;82.54
76114;BME280;64845;53.086;5.834;2022-11-11T02:29:49;102605.56;;;10.14;82.85
76114;BME280;64845;53.086;5.834;2022-11-11T02:32:15;102610.03;;;10.13;82.71
76114;BME280;64845;53.086;5.834;2022-11-11T02:34:40;102599.34;;;10.12;82.81
76114;BME280;64845;53.086;5.834;2022-11-11T02:37:07;102607.38;;;10.13;82.61
76114;BME280;64845;53.086;5.834;2022-11-11T02:39:36;102594.03;;;10.12;82.81
76114;BME280;64845;53.086;5.834;2022-11-11T02:42:03;102586.91;;;10.12;83.06
76114;BME280;64845;53.086;5.834;2022-11-11T02:44:35;102585.13;;;10.13;82.61
76114;BME280;64845;53.086;5.834;2022-11-11T02:47:02;102594.03;;;10.12;83.01
76114;BME280;64845;53.086;5.834;2022-11-11T02:49:27;102603.84;;;10.10;82.77
76114;BME280;64845;53.086;5.834;2022-11-11T02:51:53;102596.72;;;10.10;83.11
76114;BME280;64845;53.086;5.834;2022-11-11T02:54:18;102606.53;;;10.10;83.03
76114;BME280;64845;53.086;5.834;2022-11-11T02:56:43;102597.63;;;10.06;83.10
76114;BME280;64845;53.086;5.834;2022-11-11T02:59:27;102599.41;;;10.07;82.90
76114;BME280;64845;53.086;5.834;2022-11-11T03:01:53;102586.06;;;10.07;82.87
76114;BME280;64845;53.086;5.834;2022-11-11T03:04:18;102595.88;;;10.07;82.72
76114;BME280;64845;53.086;5.834;2022-11-11T03:06:43;102590.53;;;10.07;83.01
76114;BME280;64845;53.086;5.834;2022-11-11T03:09:09;102597.63;;;10.06;83.20
76114;BME280;64845;53.086;5.834;2022-11-11T03:11:34;102602.97;;;10.06;83.37
76114;BME280;64845;53.086;5.834;2022-11-11T03:14:03;102615.44;;;10.06;83.36
76114;BME280;64845;53.086;5.834;2022-11-11T03:16:29;102607.44;;;10.04;83.29
76114;BME280;64845;53.086;5.834;2022-11-11T03:19:18;102610.09;;;10.06;83.19
76114;BME280;64845;53.086;5.834;2022-11-11T03:21:44;102606.53;;;10.05;83.11
76114;BME280;64845;53.086;5.834;2022-11-11T03:24:09;102603.88;;;10.05;83.34
76114;BME280;64845;53.086;5.834;2022-11-11T03:26:35;102600.31;;;10.05;83.33
76114;BME280;64845;53.086;5.834;2022-11-11T03:29:01;102593.25;;;10.01;83.49
76114;BME280;64845;53.086;5.834;2022-11-11T03:31:26;102595.03;;;10.00;83.39
76114;BME280;64845;53.086;5.834;2022-11-11T03:33:51;102595.03;;;9.98;83.58
76114;BME280;64845;53.086;5.834;2022-11-11T03:36:17;102581.72;;;9.97;83.27
76114;BME280;64845;53.086;5.834;2022-11-11T03:38:42;102584.41;;;9.94;83.24
76114;BME280;64845;53.086;5.834;2022-11-11T03:41:07;102583.50;;;9.93;83.14
76114;BME280;64845;53.086;5.834;2022-11-11T03:43:33;102573.78;;;9.89;83.42
76114;BME280;64845;53.086;5.834;2022-11-11T03:46:06;102588.00;;;9.88;83.49
76114;BME280;64845;53.086;5.834;2022-11-11T03:48:33;102588.03;;;9.85;83.43
76114;BME280;64845;53.086;5.834;2022-11-11T03:50:58;102593.38;;;9.83;83.39
76114;BME280;64845;53.086;5.834;2022-11-11T03:53:24;102597.81;;;9.83;83.45
76114;BME280;64845;53.086;5.834;2022-11-11T03:55:50;102596.06;;;9.82;83.48
76114;BME280;64845;53.086;5.834;2022-11-11T03:58:17;102598.72;;;9.82;83.33
76114;BME280;64845;53.086;5.834;2022-11-11T04:00:43;102587.16;;;9.80;83.54
76114;BME280;64845;53.086;5.834;2022-11-11T04:03:13;102592.53;;;9.78;83.51
76114;BME280;64845;53.086;5.834;2022-11-11T04:05:58;102585.44;;;9.77;83.73
76114;BME280;64845;53.086;5.834;2022-11-11T04:08:43;102590.75;;;9.76;83.52
76114;BME280;64845;53.086;5.834;2022-11-11T04:11:41;102596.09;;;9.76;83.80
76114;BME280;64845;53.086;5.834;2022-11-11T04:14:11;102597.00;;;9.75;84.00
76114;BME280;64845;53.086;5.834;2022-11-11T04:16:56;102593.44;;;9.74;83.88
76114;BME280;64845;53.086;5.834;2022-11-11T04:19:22;102594.34;;;9.72;83.78
76114;BME280;64845;53.086;5.834;2022-11-11T04:22:06;102602.34;;;9.72;84.01
76114;BME280;64845;53.086;5.834;2022-11-11T04:24:32;102605.00;;;9.73;84.04
76114;BME280;64845;53.086;5.834;2022-11-11T04:27:17;102608.53;;;9.74;83.95
76114;BME280;64845;53.086;5.834;2022-11-11T04:29:43;102605.00;;;9.73;83.94
76114;BME280;64845;53.086;5.834;2022-11-11T04:32:11;102610.34;;;9.72;83.76
76114;BME280;64845;53.086;5.834;2022-11-11T04:35:03;102616.59;;;9.71;83.93
76114;BME280;64845;53.086;5.834;2022-11-11T04:37:36;102616.59;;;9.71;84.07
76114;BME280;64845;53.086;5.834;2022-11-11T04:40:08;102613.03;;;9.70;83.73
76114;BME280;64845;53.086;5.834;2022-11-11T04:42:52;102619.28;;;9.71;83.86
76114;BME280;64845;53.086;5.834;2022-11-11T04:45:18;102621.94;;;9.71;83.99
76114;BME280;64845;53.086;5.834;2022-11-11T04:48:02;102618.38;;;9.68;83.91
76114;BME280;64845;53.086;5.834;2022-11-11T04:50:34;102616.59;;;9.69;84.06
76114;BME280;64845;53.086;5.834;2022-11-11T04:53:01;102608.63;;;9.67;83.93
76114;BME280;64845;53.086;5.834;2022-11-11T04:55:27;102611.28;;;9.67;84.04
76114;BME280;64845;53.086;5.834;2022-11-11T04:58:11;102612.16;;;9.68;83.96
76114;BME280;64845;53.086;5.834;2022-11-11T05:00:37;102612.19;;;9.66;83.97
76114;BME280;64845;53.086;5.834;2022-11-11T05:03:03;102609.50;;;9.66;84.20
76114;BME280;64845;53.086;5.834;2022-11-11T05:05:59;102617.50;;;9.66;84.13
76114;BME280;64845;53.086;5.834;2022-11-11T05:08:48;102613.94;;;9.66;83.85
76114;BME280;64845;53.086;5.834;2022-11-11T05:11:27;102621.06;;;9.64;83.93
76114;BME280;64845;53.086;5.834;2022-11-11T05:13:58;102622.84;;;9.63;83.91
76114;BME280;64845;53.086;5.834;2022-11-11T05:19:28;102621.97;;;9.61;84.30
76114;BME280;64845;53.086;5.834;2022-11-11T05:22:15;102625.53;;;9.60;84.27
76114;BME280;64845;53.086;5.834;2022-11-11T05:24:42;102622.88;;;9.57;83.85
76114;BME280;64845;53.086;5.834;2022-11-11T05:27:26;102629.13;;;9.55;84.26
76114;BME280;64845;53.086;5.834;2022-11-11T05:29:52;102628.25;;;9.52;84.18
76114;BME280;64845;53.086;5.834;2022-11-11T05:32:18;102623.84;;;9.50;83.79
76114;BME280;64845;53.086;5.834;2022-11-11T05:34:44;102613.16;;;9.48;84.34
76114;BME280;64845;53.086;5.834;2022-11-11T05:37:10;102611.38;;;9.50;84.28
76114;BME280;64845;53.086;5.834;2022-11-11T05:39:36;102613.16;;;9.50;84.18
76114;BME280;64845;53.086;5.834;2022-11-11T05:42:01;102622.03;;;9.50;83.98
76114;BME280;64845;53.086;5.834;2022-11-11T05:44:26;102623.81;;;9.51;84.77
76114;BME280;64845;53.086;5.834;2022-11-11T05:46:52;102630.91;;;9.54;84.44
76114;BME280;64845;53.086;5.834;2022-11-11T05:49:17;102627.34;;;9.55;84.03
76114;BME280;64845;53.086;5.834;2022-11-11T05:51:44;102637.13;;;9.56;84.50
76114;BME280;64845;53.086;5.834;2022-11-11T05:54:09;102631.78;;;9.58;84.50
76114;BME280;64845;53.086;5.834;2022-11-11T05:56:35;102639.78;;;9.58;84.26
76114;BME280;64845;53.086;5.834;2022-11-11T05:59:00;102629.09;;;9.59;84.31
76114;BME280;64845;53.086;5.834;2022-11-11T06:01:26;102638.84;;;9.62;84.50
76114;BME280;64845;53.086;5.834;2022-11-11T06:03:51;102644.19;;;9.63;84.41
76114;BME280;64845;53.086;5.834;2022-11-11T06:06:16;102644.19;;;9.66;84.47
76114;BME280;64845;53.086;5.834;2022-11-11T06:08:42;102648.59;;;9.69;84.32
76114;BME280;64845;53.086;5.834;2022-11-11T06:11:07;102648.63;;;9.71;84.22
76114;BME280;64845;53.086;5.834;2022-11-11T06:13:33;102648.56;;;9.74;84.35
76114;BME280;64845;53.086;5.834;2022-11-11T06:15:59;102653.91;;;9.75;84.35
76114;BME280;64845;53.086;5.834;2022-11-11T06:18:25;102652.13;;;9.76;84.51
76114;BME280;64845;53.086;5.834;2022-11-11T06:20:54;102655.69;;;9.76;84.40
76114;BME280;64845;53.086;5.834;2022-11-11T06:23:21;102652.13;;;9.77;84.11
76114;BME280;64845;53.086;5.834;2022-11-11T06:25:47;102650.34;;;9.76;84.43
76114;BME280;64845;53.086;5.834;2022-11-11T06:28:31;102666.34;;;9.76;84.23
76114;BME280;64845;53.086;5.834;2022-11-11T06:30:56;102654.78;;;9.76;84.43
76114;BME280;64845;53.086;5.834;2022-11-11T06:33:22;102647.69;;;9.76;84.23
76114;BME280;64845;53.086;5.834;2022-11-11T06:35:47;102656.56;;;9.75;84.13
76114;BME280;64845;53.086;5.834;2022-11-11T06:38:13;102672.59;;;9.75;84.56
76114;BME280;64845;53.086;5.834;2022-11-11T06:40:39;102681.47;;;9.74;84.20
76114;BME280;64845;53.086;5.834;2022-11-11T06:43:06;102679.72;;;9.73;84.38
76114;BME280;64845;53.086;5.834;2022-11-11T06:45:31;102689.47;;;9.73;84.54
76114;BME280;64845;53.086;5.834;2022-11-11T06:47:58;102687.69;;;9.72;84.33
76114;BME280;64845;53.086;5.834;2022-11-11T06:50:23;102682.38;;;9.72;84.07
76114;BME280;64845;53.086;5.834;2022-11-11T06:52:49;102693.03;;;9.72;84.11
76114;BME280;64845;53.086;5.834;2022-11-11T06:55:14;102696.59;;;9.72;84.25
76114;BME280;64845;53.086;5.834;2022-11-11T06:57:39;102697.53;;;9.70;84.45
76114;BME280;64845;53.086;5.834;2022-11-11T07:00:06;102701.97;;;9.71;84.27
76114;BME280;64845;53.086;5.834;2022-11-11T07:02:32;102699.28;;;9.69;84.37
76114;BME280;64845;53.086;5.834;2022-11-11T07:04:58;102702.84;;;9.68;84.19
76114;BME280;64845;53.086;5.834;2022-11-11T07:07:24;102705.50;;;9.71;84.01
76114;BME280;64845;53.086;5.834;2022-11-11T07:09:50;102702.84;;;9.71;84.18
76114;BME280;64845;53.086;5.834;2022-11-11T07:12:16;102689.47;;;9.73;83.95
76114;BME280;64845;53.086;5.834;2022-11-11T07:14:42;102701.03;;;9.72;84.27
76114;BME280;64845;53.086;5.834;2022-11-11T07:17:07;102702.81;;;9.73;84.23
76114;BME280;64845;53.086;5.834;2022-11-11T07:19:32;102706.38;;;9.73;84.34
76114;BME280;64845;53.086;5.834;2022-11-11T07:21:58;102704.59;;;9.72;84.00
76114;BME280;64845;53.086;5.834;2022-11-11T07:24:23;102708.16;;;9.74;84.27
76114;BME280;64845;53.086;5.834;2022-11-11T07:26:48;102725.03;;;9.75;84.34
76114;BME280;64845;53.086;5.834;2022-11-11T07:29:14;102727.72;;;9.73;83.98
76114;BME280;64845;53.086;5.834;2022-11-11T07:31:41;102727.72;;;9.73;84.28
76114;BME280;64845;53.086;5.834;2022-11-11T07:34:06;102733.03;;;9.75;84.32
76114;BME280;64845;53.086;5.834;2022-11-11T07:36:32;102734.81;;;9.76;84.32
76114;BME280;64845;53.086;5.834;2022-11-11T07:38:57;102735.72;;;9.75;84.10
76114;BME280;64845;53.086;5.834;2022-11-11T07:41:23;102734.81;;;9.76;84.16
76114;BME280;64845;53.086;5.834;2022-11-11T07:43:48;102739.28;;;9.75;84.32
76114;BME280;64845;53.086;5.834;2022-11-11T07:46:14;102745.50;;;9.74;84.01
76114;BME280;64845;53.086;5.834;2022-11-11T07:48:39;102755.28;;;9.75;84.25
76114;BME280;64845;53.086;5.834;2022-11-11T07:51:05;102747.28;;;9.75;83.85
76114;BME280;64845;53.086;5.834;2022-11-11T07:53:30;102765.97;;;9.75;84.29
76114;BME280;64845;53.086;5.834;2022-11-11T07:55:55;102760.63;;;9.75;84.14
76114;BME280;64845;53.086;5.834;2022-11-11T07:58:21;102777.50;;;9.76;84.22
76114;BME280;64845;53.086;5.834;2022-11-11T08:00:46;102782.84;;;9.74;84.11
76114;BME280;64845;53.086;5.834;2022-11-11T08:03:12;102789.09;;;9.73;83.94
76114;BME280;64845;53.086;5.834;2022-11-11T08:05:37;102790.84;;;9.73;83.94
76114;BME280;64845;53.086;5.834;2022-11-11T08:08:04;102791.75;;;9.72;84.21
76114;BME280;64845;53.086;5.834;2022-11-11T08:10:30;102794.41;;;9.70;84.12
76114;BME280;64845;53.086;5.834;2022-11-11T08:12:55;102793.56;;;9.70;84.28
76114;BME280;64845;53.086;5.834;2022-11-11T08:15:40;102796.22;;;9.68;84.07
76114;BME280;64845;53.086;5.834;2022-11-11T08:18:06;102805.97;;;9.69;84.23
76114;BME280;64845;53.086;5.834;2022-11-11T08:20:31;102806.00;;;9.67;84.41
76114;BME280;64845;53.086;5.834;2022-11-11T08:22:56;102812.22;;;9.66;84.32
76114;BME280;64845;53.086;5.834;2022-11-11T08:25:24;102807.78;;;9.65;84.04
76114;BME280;64845;53.086;5.834;2022-11-11T08:28:00;102806.00;;;9.67;84.09
76114;BME280;64845;53.086;5.834;2022-11-11T08:30:26;102809.53;;;9.68;84.42
76114;BME280;64845;53.086;5.834;2022-11-11T08:33:02;102821.13;;;9.68;84.11
76114;BME280;64845;53.086;5.834;2022-11-11T08:35:28;102814.00;;;9.69;84.00
76114;BME280;64845;53.086;5.834;2022-11-11T08:37:54;102814.00;;;9.71;84.26
76114;BME280;64845;53.086;5.834;2022-11-11T08:40:20;102809.56;;;9.70;84.17
76114;BME280;64845;53.086;5.834;2022-11-11T08:42:45;102810.41;;;9.72;84.20
76114;BME280;64845;53.086;5.834;2022-11-11T08:45:11;102822.00;;;9.72;84.15
76114;BME280;64845;53.086;5.834;2022-11-11T08:47:37;102821.06;;;9.72;84.27
76114;BME280;64845;53.086;5.834;2022-11-11T08:50:04;102819.34;;;9.71;83.94
76114;BME280;64845;53.086;5.834;2022-11-11T08:52:29;102814.00;;;9.71;83.91
76114;BME280;64845;53.086;5.834;2022-11-11T08:54:54;102814.00;;;9.71;84.41
76114;BME280;64845;53.086;5.834;2022-11-11T08:57:20;102808.66;;;9.69;83.87
76114;BME280;64845;53.086;5.834;2022-11-11T08:59:45;102806.88;;;9.68;83.91
76114;BME280;64845;53.086;5.834;2022-11-11T09:02:11;102813.09;;;9.67;84.29
76114;BME280;64845;53.086;5.834;2022-11-11T09:04:38;102805.09;;;9.67;83.98
76114;BME280;64845;53.086;5.834;2022-11-11T09:07:03;102813.09;;;9.67;84.33
76114;BME280;64845;53.086;5.834;2022-11-11T09:09:29;102814.91;;;9.70;84.11
76114;BME280;64845;53.086;5.834;2022-11-11T09:11:54;102828.22;;;9.70;84.17
76114;BME280;64845;53.086;5.834;2022-11-11T09:14:20;102820.22;;;9.71;84.11
76114;BME280;64845;53.086;5.834;2022-11-11T09:16:45;102827.31;;;9.72;84.00
76114;BME280;64845;53.086;5.834;2022-11-11T09:19:10;102827.34;;;9.71;84.22
76114;BME280;64845;53.086;5.834;2022-11-11T09:21:36;102824.66;;;9.71;84.22
76114;BME280;64845;53.086;5.834;2022-11-11T09:24:01;102827.34;;;9.71;84.04
76114;BME280;64845;53.086;5.834;2022-11-11T09:26:27;102829.09;;;9.72;84.17
76114;BME280;64845;53.086;5.834;2022-11-11T09:28:52;102830.00;;;9.71;84.14
76114;BME280;64845;53.086;5.834;2022-11-11T09:31:17;102830.88;;;9.71;84.10
76114;BME280;64845;53.086;5.834;2022-11-11T09:33:43;102836.22;;;9.71;84.06
76114;BME280;64845;53.086;5.834;2022-11-11T09:36:08;102844.22;;;9.71;83.88
76114;BME280;64845;53.086;5.834;2022-11-11T09:38:34;102838.00;;;9.71;84.03
76114;BME280;64845;53.086;5.834;2022-11-11T09:41:19;102851.34;;;9.71;84.20
76114;BME280;64845;53.086;5.834;2022-11-11T09:51:55;102854.88;;;9.73;83.77
76114;BME280;64845;53.086;5.834;2022-11-11T09:54:38;102867.31;;;9.74;83.96
76114;BME280;64845;53.086;5.834;2022-11-11T09:57:11;102875.31;;;9.74;83.57
76114;BME280;64845;53.086;5.834;2022-11-11T09:59:46;102874.44;;;9.75;83.94
76114;BME280;64845;53.086;5.834;2022-11-11T10:02:29;102881.56;;;9.74;84.06
76114;BME280;64845;53.086;5.834;2022-11-11T10:05:08;102884.22;;;9.76;83.88
76114;BME280;64845;53.086;5.834;2022-11-11T10:10:12;102886.91;;;9.74;84.17
76114;BME280;64845;53.086;5.834;2022-11-11T10:12:46;102877.09;;;9.75;83.67
76114;BME280;64845;53.086;5.834;2022-11-11T10:15:19;102879.78;;;9.75;83.85
76114;BME280;64845;53.086;5.834;2022-11-11T10:20:31;102876.22;;;9.74;83.84
76114;BME280;64845;53.086;5.834;2022-11-11T10:23:02;102875.34;;;9.75;84.01
76114;BME280;64845;53.086;5.834;2022-11-11T10:25:30;102877.13;;;9.76;83.66
76114;BME280;64845;53.086;5.834;2022-11-11T10:27:58;102885.09;;;9.78;83.57
76114;BME280;64845;53.086;5.834;2022-11-11T10:30:27;102886.00;;;9.77;83.79
76114;BME280;64845;53.086;5.834;2022-11-11T10:33:04;102886.88;;;9.76;83.81
76114;BME280;64845;53.086;5.834;2022-11-11T10:35:31;102881.53;;;9.76;83.89
76114;BME280;64845;53.086;5.834;2022-11-11T10:40:54;102883.31;;;9.80;83.46
76114;BME280;64845;53.086;5.834;2022-11-11T10:43:23;102886.88;;;9.82;83.73
76114;BME280;64845;53.086;5.834;2022-11-11T10:46:13;102894.00;;;9.86;83.61
76114;BME280;64845;53.086;5.834;2022-11-11T10:52:04;102890.44;;;9.87;83.75
76114;BME280;64845;53.086;5.834;2022-11-11T10:54:40;102893.97;;;9.88;83.41
76114;BME280;64845;53.086;5.834;2022-11-11T11:00:04;102885.06;;;9.82;83.42
76114;BME280;64845;53.086;5.834;2022-11-11T11:02:54;102890.44;;;9.84;83.38
76114;BME280;64845;53.086;5.834;2022-11-11T11:05:47;102894.88;;;9.83;83.59
76114;BME280;64845;53.086;5.834;2022-11-11T11:08:33;102893.09;;;9.84;83.37
76114;BME280;64845;53.086;5.834;2022-11-11T11:11:04;102889.53;;;9.83;83.45
76114;BME280;64845;53.086;5.834;2022-11-11T11:13:44;102894.88;;;9.82;83.20
76114;BME280;64845;53.086;5.834;2022-11-11T11:16:18;102892.19;;;9.83;83.51
76114;BME280;64845;53.086;5.834;2022-11-11T11:19:12;102893.09;;;9.82;83.46
76114;BME280;64845;53.086;5.834;2022-11-11T11:24:24;102879.75;;;9.84;83.24
76114;BME280;64845;53.086;5.834;2022-11-11T11:26:53;102886.88;;;9.85;83.47
76114;BME280;64845;53.086;5.834;2022-11-11T11:31:55;102876.19;;;9.83;83.25
76114;BME280;64845;53.086;5.834;2022-11-11T11:34:22;102875.28;;;9.81;83.27
76114;BME280;64845;53.086;5.834;2022-11-11T11:37:06;102881.53;;;9.82;83.57
76114;BME280;64845;53.086;5.834;2022-11-11T11:39:35;102886.88;;;9.82;nan
76114;BME280;64845;53.086;5.834;2022-11-11T11:42:01;102885.09;;;9.81;nan
76114;BME280;64845;53.086;5.834;2022-11-11T11:44:29;102889.56;;;9.80;83.20
76114;BME280;64845;53.086;5.834;2022-11-11T11:55:27;102882.44;;;9.78;83.21
76114;BME280;64845;53.086;5.834;2022-11-11T12:01:00;102896.66;;;9.81;83.67
76114;BME280;64845;53.086;5.834;2022-11-11T12:06:35;102895.75;;;9.82;83.40
76114;BME280;64845;53.086;5.834;2022-11-11T12:17:00;102891.31;;;9.86;83.27
76114;BME280;64845;53.086;5.834;2022-11-11T12:27:51;102908.19;;;9.91;83.37
76114;BME280;64845;53.086;5.834;2022-11-11T12:30:22;102902.84;;;9.91;83.29
76114;BME280;64845;53.086;5.834;2022-11-11T12:41:16;102906.41;;;9.93;83.25
76114;BME280;64845;53.086;5.834;2022-11-11T12:43:59;102908.19;;;9.93;83.41
76114;BME280;64845;53.086;5.834;2022-11-11T12:52:16;102911.72;;;9.96;83.10
76114;BME280;64845;53.086;5.834;2022-11-11T12:58:06;102917.97;;;9.97;82.97
76114;BME280;64845;53.086;5.834;2022-11-11T13:00:42;102915.31;;;9.97;83.44
76114;BME280;64845;53.086;5.834;2022-11-11T13:16:32;102926.84;;;9.97;83.25
76114;BME280;64845;53.086;5.834;2022-11-11T13:19:13;102928.63;;;9.98;83.24
76114;BME280;64845;53.086;5.834;2022-11-11T13:21:50;102934.84;;;9.97;83.12
76114;BME280;64845;53.086;5.834;2022-11-11T13:24:20;102929.53;;;9.96;83.38
76114;BME280;64845;53.086;5.834;2022-11-11T13:26:47;102942.00;;;9.97;83.38
76114;BME280;64845;53.086;5.834;2022-11-11T13:32:04;102947.31;;;9.98;83.27
76114;BME280;64845;53.086;5.834;2022-11-11T13:34:33;102949.97;;;9.98;83.38
76114;BME280;64845;53.086;5.834;2022-11-11T13:37:05;102943.75;;;9.96;83.10
76114;BME280;64845;53.086;5.834;2022-11-11T13:39:37;102947.31;;;9.95;83.21
76114;BME280;64845;53.086;5.834;2022-11-11T13:42:05;102942.88;;;9.94;83.19
76114;BME280;64845;53.086;5.834;2022-11-11T13:44:55;102941.09;;;9.93;83.32
76114;BME280;64845;53.086;5.834;2022-11-11T13:47:48;102941.09;;;9.93;83.53
76114;BME280;64845;53.086;5.834;2022-11-11T13:50:19;102938.41;;;9.93;83.14
76114;BME280;64845;53.086;5.834;2022-11-11T13:53:02;102933.09;;;9.93;83.33
76114;BME280;64845;53.086;5.834;2022-11-11T13:55:43;102941.97;;;9.95;83.36
76114;BME280;64845;53.086;5.834;2022-11-11T13:58:27;102944.66;;;9.92;83.23
76114;BME280;64845;53.086;5.834;2022-11-11T14:00:58;102943.75;;;9.93;83.32
76114;BME280;64845;53.086;5.834;2022-11-11T14:11:33;102941.97;;;9.92;83.13
76114;BME280;64845;53.086;5.834;2022-11-11T14:17:00;102946.44;;;9.93;83.43
76114;BME280;64845;53.086;5.834;2022-11-11T14:19:28;102941.97;;;9.92;83.03
76114;BME280;64845;53.086;5.834;2022-11-11T14:22:30;102944.66;;;9.92;83.04
76114;BME280;64845;53.086;5.834;2022-11-11T14:25:30;102942.88;;;9.91;83.38
76114;BME280;64845;53.086;5.834;2022-11-11T14:27:54;102949.13;;;9.90;83.50
76114;BME280;64845;53.086;5.834;2022-11-11T14:30:46;102947.34;;;9.91;83.52
76114;BME280;64845;53.086;5.834;2022-11-11T14:35:59;102949.13;;;9.90;83.57
76114;BME280;64845;53.086;5.834;2022-11-11T14:40:52;102950.88;;;9.93;83.49
76114;BME280;64845;53.086;5.834;2022-11-11T14:46:02;102951.78;;;9.92;83.34
76114;BME280;64845;53.086;5.834;2022-11-11T14:48:53;102949.13;;;9.90;83.36
76114;BME280;64845;53.086;5.834;2022-11-11T14:51:36;102943.78;;;9.90;83.38
76114;BME280;64845;53.086;5.834;2022-11-11T14:54:04;102942.88;;;9.90;83.45
76114;BME280;64845;53.086;5.834;2022-11-11T14:56:31;102951.78;;;9.89;83.38
76114;BME280;64845;53.086;5.834;2022-11-11T14:59:05;102958.03;;;9.89;83.71
76114;BME280;64845;53.086;5.834;2022-11-11T15:01:31;102955.34;;;9.89;83.25
76114;BME280;64845;53.086;5.834;2022-11-11T15:04:01;102960.69;;;9.88;83.68
76114;BME280;64845;53.086;5.834;2022-11-11T15:06:33;102963.34;;;9.88;83.28
76114;BME280;64845;53.086;5.834;2022-11-11T15:12:09;102963.38;;;9.86;83.22
76114;BME280;64845;53.086;5.834;2022-11-11T15:17:23;102960.69;;;9.86;83.67
76114;BME280;64845;53.086;5.834;2022-11-11T15:36:44;102958.03;;;9.86;83.64
76114;BME280;64845;53.086;5.834;2022-11-11T15:39:16;102966.03;;;9.88;83.37
76114;BME280;64845;53.086;5.834;2022-11-11T15:41:48;102966.03;;;9.86;83.58